createdAt,value
2023-05-21T00:01:35.663Z,11.49
2023-05-21T00:04:06.373Z,11.48
2023-05-21T00:06:38.267Z,11.45
2023-05-21T00:09:06.777Z,11.42
2023-05-21T00:11:35.166Z,11.38
2023-05-21T00:14:03.529Z,11.34
2023-05-21T00:16:31.870Z,11.28
2023-05-21T00:19:00.228Z,11.24
2023-05-21T00:21:29.912Z,11.19
2023-05-21T00:23:59.029Z,11.17
2023-05-21T00:26:27.353Z,11.14
2023-05-21T00:28:57.360Z,11.12
2023-05-21T00:31:25.503Z,11.10
2023-05-21T00:33:54.202Z,11.08
2023-05-21T00:36:24.197Z,11.06
2023-05-21T00:38:52.806Z,11.03
2023-05-21T00:41:23.654Z,10.99
2023-05-21T00:43:53.151Z,10.95
2023-05-21T00:46:22.773Z,10.90
2023-05-21T00:48:52.512Z,10.85
2023-05-21T00:51:21.798Z,10.82
2023-05-21T00:53:53.177Z,10.79
2023-05-21T00:56:24.734Z,10.74
2023-05-21T00:58:59.631Z,10.72
2023-05-21T01:01:28.006Z,10.69
2023-05-21T01:03:58.034Z,10.66
2023-05-21T01:06:26.709Z,10.63
2023-05-21T01:08:57.132Z,10.60
2023-05-21T01:11:37.356Z,10.57
2023-05-21T01:14:10.219Z,10.55
2023-05-21T01:16:41.166Z,10.53
2023-05-21T01:19:14.420Z,10.53
2023-05-21T01:21:48.438Z,10.51
2023-05-21T01:24:16.962Z,10.48
2023-05-21T01:26:46.594Z,10.44
2023-05-21T01:29:15.186Z,10.41
2023-05-21T01:32:10.033Z,10.39
2023-05-21T01:35:06.803Z,10.36
2023-05-21T01:37:41.719Z,10.32
2023-05-21T01:40:28.335Z,10.30
2023-05-21T01:42:58.623Z,10.29
2023-05-21T01:45:31.577Z,10.29
2023-05-21T01:48:00.923Z,10.28
2023-05-21T01:50:32.186Z,10.27
2023-05-21T01:53:06.099Z,10.27
2023-05-21T01:55:36.062Z,10.25
2023-05-21T01:58:04.616Z,10.21
2023-05-21T02:00:34.801Z,10.17
2023-05-21T02:03:03.493Z,10.14
2023-05-21T02:05:31.813Z,10.12
2023-05-21T02:08:00.274Z,10.09
2023-05-21T02:10:28.741Z,10.07
2023-05-21T02:12:57.017Z,10.06
2023-05-21T02:15:25.990Z,10.07
2023-05-21T02:17:55.923Z,10.07
2023-05-21T02:20:24.224Z,10.05
2023-05-21T02:22:52.623Z,10.04
2023-05-21T02:25:21.157Z,10.01
2023-05-21T02:27:53.812Z,9.99
2023-05-21T02:30:22.446Z,9.96
2023-05-21T02:32:50.908Z,9.94
2023-05-21T02:35:19.588Z,9.92
2023-05-21T02:37:49.131Z,9.91
2023-05-21T02:40:17.445Z,9.89
2023-05-21T02:42:45.897Z,9.88
2023-05-21T02:45:15.745Z,9.85
2023-05-21T02:47:44.598Z,9.84
2023-05-21T02:50:15.172Z,9.81
2023-05-21T02:52:46.985Z,9.78
2023-05-21T02:55:15.372Z,9.76
2023-05-21T02:57:43.930Z,9.76
2023-05-21T03:00:13.528Z,9.77
2023-05-21T03:02:43.490Z,9.75
2023-05-21T03:05:12.319Z,9.74
2023-05-21T03:07:42.080Z,9.70
2023-05-21T03:10:11.103Z,9.65
2023-05-21T03:12:39.457Z,9.62
2023-05-21T03:15:08.333Z,9.60
2023-05-21T03:17:36.813Z,9.61
2023-05-21T03:20:05.843Z,9.62
2023-05-21T03:22:34.663Z,9.64
2023-05-21T03:25:05.708Z,9.66
2023-05-21T03:27:33.955Z,9.69
2023-05-21T03:30:06.825Z,9.74
2023-05-21T03:32:41.576Z,9.77
2023-05-21T03:35:11.247Z,9.81
2023-05-21T03:37:39.772Z,9.85
2023-05-21T03:40:08.723Z,9.89
2023-05-21T03:42:37.209Z,9.94
2023-05-21T03:45:06.675Z,10.00
2023-05-21T03:47:58.442Z,10.07
2023-05-21T03:50:28.060Z,10.15
2023-05-21T03:52:56.328Z,10.23
2023-05-21T03:55:25.306Z,10.31
2023-05-21T03:57:53.607Z,10.37
2023-05-21T04:00:24.488Z,10.45
2023-05-21T04:02:53.199Z,10.55
2023-05-21T04:05:21.733Z,10.64
2023-05-21T04:07:50.636Z,10.73
2023-05-21T04:10:23.332Z,10.84
2023-05-21T04:12:52.771Z,10.93
2023-05-21T04:15:23.389Z,11.03
2023-05-21T04:17:52.740Z,11.14
2023-05-21T04:20:21.579Z,11.26
2023-05-21T04:22:50.147Z,11.39
2023-05-21T04:25:20.485Z,11.50
2023-05-21T04:27:50.330Z,11.64
2023-05-21T04:30:22.823Z,11.80
2023-05-21T04:32:52.848Z,12.00
2023-05-21T04:35:21.741Z,12.19
2023-05-21T04:37:50.651Z,12.39
2023-05-21T04:40:24.495Z,12.57
2023-05-21T04:42:53.082Z,12.74
2023-05-21T04:45:24.768Z,12.90
2023-05-21T04:47:53.980Z,13.06
2023-05-21T04:50:23.294Z,13.21
2023-05-21T04:52:51.593Z,13.37
2023-05-21T04:55:20.140Z,13.54
2023-05-21T04:57:48.490Z,13.71
2023-05-21T05:00:17.725Z,13.87
2023-05-21T05:02:47.359Z,14.01
2023-05-21T05:05:15.988Z,14.16
2023-05-21T05:07:44.348Z,14.32
2023-05-21T05:10:12.722Z,14.47
2023-05-21T05:12:41.162Z,14.63
2023-05-21T05:15:09.809Z,14.76
2023-05-21T05:17:40.057Z,14.91
2023-05-21T05:20:10.232Z,15.06
2023-05-21T05:22:39.283Z,15.21
2023-05-21T05:25:08.045Z,15.33
2023-05-21T05:27:38.382Z,15.40
2023-05-21T05:30:07.968Z,15.45
2023-05-21T05:32:36.662Z,15.50
2023-05-21T05:35:05.502Z,15.59
2023-05-21T05:37:34.138Z,15.70
2023-05-21T05:40:02.500Z,15.82
2023-05-21T05:42:31.042Z,15.88
2023-05-21T05:45:00.399Z,15.95
2023-05-21T05:47:29.027Z,16.09
2023-05-21T05:49:59.353Z,16.23
2023-05-21T05:52:27.722Z,16.37
2023-05-21T05:54:55.987Z,16.48
2023-05-21T05:57:24.248Z,16.62
2023-05-21T05:59:54.031Z,16.74
2023-05-21T06:02:22.475Z,16.85
2023-05-21T06:04:50.820Z,16.98
2023-05-21T06:07:19.577Z,17.12
2023-05-21T06:09:47.857Z,17.23
2023-05-21T06:12:16.697Z,17.26
2023-05-21T06:14:46.676Z,17.30
2023-05-21T06:17:15.547Z,17.43
2023-05-21T06:19:45.341Z,17.59
2023-05-21T06:22:13.689Z,17.69
2023-05-21T06:24:42.068Z,17.81
2023-05-21T06:27:11.250Z,17.93
2023-05-21T06:29:41.041Z,18.03
2023-05-21T06:32:09.736Z,18.18
2023-05-21T06:34:38.235Z,18.29
2023-05-21T06:37:06.596Z,18.41
2023-05-21T06:39:35.377Z,18.55
2023-05-21T06:42:04.455Z,18.69
2023-05-21T06:44:53.458Z,18.78
2023-05-21T06:47:27.566Z,18.82
2023-05-21T06:49:56.698Z,18.93
2023-05-21T06:52:27.255Z,19.01
2023-05-21T06:54:56.231Z,19.09
2023-05-21T06:57:25.199Z,19.22
2023-05-21T06:59:53.562Z,19.41
2023-05-21T07:02:21.894Z,19.55
2023-05-21T07:04:50.500Z,19.64
2023-05-21T07:07:18.917Z,19.76
2023-05-21T07:09:47.364Z,19.84
2023-05-21T07:12:16.287Z,19.90
2023-05-21T07:14:44.770Z,19.97
2023-05-21T07:17:13.022Z,20.04
2023-05-21T07:19:41.372Z,20.14
2023-05-21T07:22:12.671Z,20.23
2023-05-21T07:24:41.617Z,20.32
2023-05-21T07:27:24.709Z,20.46
2023-05-21T07:29:54.016Z,20.60
2023-05-21T07:32:23.002Z,20.71
2023-05-21T07:34:54.194Z,20.78
2023-05-21T07:37:25.631Z,20.84
2023-05-21T07:39:57.073Z,20.88
2023-05-21T07:42:26.841Z,20.96
2023-05-21T07:44:56.163Z,21.00
2023-05-21T07:47:24.816Z,21.05
2023-05-21T07:49:53.380Z,21.15
2023-05-21T07:52:22.387Z,21.28
2023-05-21T07:54:50.803Z,21.36
2023-05-21T07:57:19.517Z,21.44
2023-05-21T07:59:53.288Z,21.56
2023-05-21T08:02:22.669Z,21.72
2023-05-21T08:04:52.696Z,21.89
2023-05-21T08:07:22.305Z,22.06
2023-05-21T08:09:51.597Z,22.23
2023-05-21T08:12:20.086Z,22.39
2023-05-21T08:14:48.447Z,22.57
2023-05-21T08:17:17.464Z,22.74
2023-05-21T08:19:45.853Z,22.88
2023-05-21T08:22:14.191Z,22.97
2023-05-21T08:24:44.121Z,23.08
2023-05-21T08:27:12.389Z,23.07
2023-05-21T08:29:40.606Z,23.03
2023-05-21T08:32:10.279Z,23.15
2023-05-21T08:34:38.753Z,23.31
2023-05-21T08:37:21.689Z,23.39
2023-05-21T08:40:01.619Z,23.44
2023-05-21T08:42:37.146Z,23.50
2023-05-21T08:45:07.817Z,23.46
2023-05-21T08:47:37.205Z,23.40
2023-05-21T08:50:09.811Z,23.42
2023-05-21T08:52:38.306Z,23.45
2023-05-21T08:55:08.593Z,23.51
2023-05-21T08:57:43.884Z,23.62
2023-05-21T09:00:12.930Z,23.69
2023-05-21T09:02:44.220Z,23.72
2023-05-21T09:05:15.673Z,23.79
2023-05-21T09:07:55.945Z,23.85
2023-05-21T09:10:55.930Z,23.91
2023-05-21T09:13:29.356Z,23.99
2023-05-21T09:15:57.804Z,24.05
2023-05-21T09:18:29.617Z,24.19
2023-05-21T09:21:25.282Z,24.37
2023-05-21T09:23:56.155Z,24.50
2023-05-21T09:26:26.884Z,24.50
2023-05-21T09:29:02.464Z,24.60
2023-05-21T09:31:33.011Z,24.76
2023-05-21T09:34:03.917Z,24.90
2023-05-21T09:36:38.723Z,24.92
2023-05-21T09:39:07.045Z,24.91
2023-05-21T09:41:38.473Z,24.93
2023-05-21T09:44:06.957Z,24.93
2023-05-21T09:46:41.107Z,24.99
2023-05-21T09:49:31.461Z,25.01
2023-05-21T09:52:01.124Z,25.04
2023-05-21T09:54:34.182Z,25.11
2023-05-21T09:57:02.993Z,25.19
2023-05-21T09:59:39.198Z,25.24
2023-05-21T10:02:24.718Z,25.39
2023-05-21T10:04:54.866Z,25.54
2023-05-21T10:07:26.638Z,25.57
2023-05-21T10:09:57.311Z,25.58
2023-05-21T10:12:27.812Z,25.60
2023-05-21T10:15:09.746Z,25.62
2023-05-21T10:17:39.775Z,25.62
2023-05-21T10:20:11.190Z,25.69
2023-05-21T10:22:41.198Z,25.76
2023-05-21T10:25:10.375Z,25.84
2023-05-21T10:27:39.587Z,25.93
2023-05-21T10:30:08.834Z,25.98
2023-05-21T10:32:40.273Z,26.04
2023-05-21T10:35:10.304Z,26.11
2023-05-21T10:37:39.706Z,26.18
2023-05-21T10:40:08.767Z,26.23
2023-05-21T10:43:26.536Z,26.32
2023-05-21T10:46:36.833Z,26.36
2023-05-21T10:49:25.627Z,26.41
2023-05-21T10:52:18.477Z,26.39
2023-05-21T10:55:17.837Z,26.41
2023-05-21T10:57:49.007Z,26.48
2023-05-21T11:00:20.691Z,26.49
2023-05-21T11:02:52.350Z,26.45
2023-05-21T11:05:52.756Z,26.43
2023-05-21T11:08:23.670Z,26.43
2023-05-21T11:10:58.457Z,26.39
2023-05-21T11:13:31.481Z,26.36
2023-05-21T11:15:59.910Z,26.40
2023-05-21T11:18:34.281Z,26.46
2023-05-21T11:21:17.263Z,26.33
2023-05-21T11:23:58.422Z,26.19
2023-05-21T11:26:29.600Z,26.08
2023-05-21T11:29:09.658Z,25.97
2023-05-21T11:31:39.489Z,25.80
2023-05-21T11:34:11.329Z,25.67
2023-05-21T11:36:45.754Z,25.72
2023-05-21T11:39:22.376Z,25.77
2023-05-21T11:42:04.146Z,25.71
2023-05-21T11:44:47.740Z,25.77
2023-05-21T11:47:18.357Z,25.85
2023-05-21T11:49:47.209Z,25.89
2023-05-21T11:52:15.813Z,25.84
2023-05-21T11:54:55.526Z,25.92
2023-05-21T11:57:31.350Z,25.92
2023-05-21T12:00:01.896Z,25.88
2023-05-21T12:02:32.767Z,25.82
2023-05-21T12:05:01.453Z,25.77
2023-05-21T12:07:30.100Z,25.79
2023-05-21T12:09:59.126Z,25.84
2023-05-21T12:12:35.621Z,25.90
2023-05-21T12:15:11.637Z,25.93
2023-05-21T12:17:40.013Z,25.89
2023-05-21T12:20:10.981Z,25.83
2023-05-21T12:22:43.825Z,25.79
2023-05-21T12:25:12.430Z,25.83
2023-05-21T12:27:42.322Z,25.79
2023-05-21T12:30:11.207Z,25.62
2023-05-21T12:32:44.621Z,25.58
2023-05-21T12:35:24.421Z,25.63
2023-05-21T12:37:53.326Z,25.62
2023-05-21T12:40:22.539Z,25.60
2023-05-21T12:42:51.782Z,25.72
2023-05-21T12:45:22.823Z,25.91
2023-05-21T12:47:56.597Z,26.11
2023-05-21T12:50:26.780Z,26.23
2023-05-21T12:52:56.617Z,26.21
2023-05-21T12:55:28.730Z,26.21
2023-05-21T12:58:03.984Z,26.25
2023-05-21T13:00:33.562Z,26.34
2023-05-21T13:03:04.913Z,26.46
2023-05-21T13:05:33.473Z,26.55
2023-05-21T13:08:01.858Z,26.56
2023-05-21T13:10:30.503Z,26.61
2023-05-21T13:12:58.901Z,26.68
2023-05-21T13:15:27.242Z,26.75
2023-05-21T13:17:57.211Z,26.77
2023-05-21T13:20:27.492Z,26.74
2023-05-21T13:22:56.828Z,26.77
2023-05-21T13:25:29.825Z,26.70
2023-05-21T13:28:03.060Z,26.65
2023-05-21T13:30:33.536Z,26.66
2023-05-21T13:33:02.839Z,26.58
2023-05-21T13:35:31.299Z,26.61
2023-05-21T13:37:59.652Z,26.55
2023-05-21T13:40:28.331Z,26.53
2023-05-21T13:42:56.890Z,26.48
2023-05-21T13:45:29.459Z,26.29
2023-05-21T13:47:58.351Z,26.14
2023-05-21T13:50:26.892Z,26.08
2023-05-21T13:52:55.458Z,25.96
2023-05-21T13:55:23.790Z,25.94
2023-05-21T13:57:52.222Z,25.93
2023-05-21T14:00:20.716Z,25.86
2023-05-21T14:02:50.169Z,25.87
2023-05-21T14:05:18.868Z,25.81
2023-05-21T14:07:48.488Z,25.71
2023-05-21T14:10:17.142Z,25.62
2023-05-21T14:12:46.394Z,25.61
2023-05-21T14:15:14.956Z,25.54
2023-05-21T14:17:43.285Z,25.46
2023-05-21T14:20:12.117Z,25.29
2023-05-21T14:22:40.403Z,25.13
2023-05-21T14:25:09.288Z,25.03
2023-05-21T14:27:38.511Z,24.95
2023-05-21T14:30:08.028Z,24.91
2023-05-21T14:32:36.668Z,24.83
2023-05-21T14:35:05.692Z,24.79
2023-05-21T14:37:34.108Z,24.79
2023-05-21T14:40:03.450Z,24.81
2023-05-21T14:42:32.079Z,24.78
2023-05-21T14:45:16.870Z,24.75
2023-05-21T14:47:47.853Z,24.76
2023-05-21T14:50:17.502Z,24.73
2023-05-21T14:52:46.479Z,24.65
2023-05-21T14:55:17.071Z,24.57
2023-05-21T14:57:45.617Z,24.52
2023-05-21T15:00:15.239Z,24.50
2023-05-21T15:02:43.702Z,24.47
2023-05-21T15:05:12.493Z,24.38
2023-05-21T15:07:40.841Z,24.26
2023-05-21T15:10:10.178Z,24.17
2023-05-21T15:12:40.202Z,24.08
2023-05-21T15:15:08.958Z,23.98
2023-05-21T15:17:37.315Z,23.87
2023-05-21T15:20:06.770Z,23.82
2023-05-21T15:22:35.664Z,23.77
2023-05-21T15:25:05.025Z,23.75
2023-05-21T15:27:34.332Z,23.70
2023-05-21T15:30:04.262Z,23.65
2023-05-21T15:32:32.595Z,23.59
2023-05-21T15:35:01.096Z,23.53
2023-05-21T15:37:32.343Z,23.47
2023-05-21T15:40:01.081Z,23.39
2023-05-21T15:42:31.753Z,23.30
2023-05-21T15:45:00.332Z,23.26
2023-05-21T15:47:28.686Z,23.24
2023-05-21T15:49:59.058Z,23.21
2023-05-21T15:52:27.597Z,23.18
2023-05-21T15:54:56.377Z,23.15
2023-05-21T15:57:24.780Z,23.10
2023-05-21T15:59:53.190Z,23.04
2023-05-21T16:02:21.663Z,22.99
2023-05-21T16:04:51.785Z,22.98
2023-05-21T16:07:20.216Z,22.94
2023-05-21T16:09:48.515Z,22.90
2023-05-21T16:12:17.751Z,22.87
2023-05-21T16:14:50.304Z,22.80
2023-05-21T16:17:19.978Z,22.75
2023-05-21T16:19:48.458Z,22.70
2023-05-21T16:22:17.353Z,22.61
2023-05-21T16:24:45.724Z,22.52
2023-05-21T16:27:14.120Z,22.43
2023-05-21T16:29:42.547Z,22.37
2023-05-21T16:32:13.202Z,22.31
2023-05-21T16:34:41.728Z,22.25
2023-05-21T16:37:10.121Z,22.20
2023-05-21T16:39:38.753Z,22.15
2023-05-21T16:42:07.028Z,22.09
2023-05-21T16:44:37.121Z,22.05
2023-05-21T16:47:05.822Z,21.98
2023-05-21T16:49:34.103Z,21.93
2023-05-21T16:52:03.440Z,21.89
2023-05-21T16:54:31.770Z,21.84
2023-05-21T16:57:00.160Z,21.78
2023-05-21T16:59:29.126Z,21.72
2023-05-21T17:01:57.480Z,21.66
2023-05-21T17:04:25.820Z,21.59
2023-05-21T17:06:54.216Z,21.52
2023-05-21T17:09:22.594Z,21.46
2023-05-21T17:11:50.943Z,21.40
2023-05-21T17:14:30.236Z,21.35
2023-05-21T17:17:02.645Z,21.27
2023-05-21T17:19:31.300Z,21.18
2023-05-21T17:21:59.765Z,21.11
2023-05-21T17:24:28.169Z,21.04
2023-05-21T17:26:56.674Z,20.96
2023-05-21T17:29:25.068Z,20.89
2023-05-21T17:31:53.597Z,20.81
2023-05-21T17:34:24.754Z,20.73
2023-05-21T17:36:54.534Z,20.63
2023-05-21T17:39:23.132Z,20.53
2023-05-21T17:41:51.981Z,20.42
2023-05-21T17:44:20.409Z,20.31
2023-05-21T17:46:51.163Z,20.19
2023-05-21T17:49:19.572Z,20.04
2023-05-21T17:51:48.151Z,19.92
2023-05-21T17:54:16.616Z,19.78
2023-05-21T17:56:46.452Z,19.66
2023-05-21T17:59:16.217Z,19.52
2023-05-21T18:01:44.633Z,19.39
2023-05-21T18:04:13.470Z,19.23
2023-05-21T18:06:43.081Z,19.08
2023-05-21T18:09:14.389Z,18.93
2023-05-21T18:11:44.739Z,18.79
2023-05-21T18:14:13.192Z,18.63
2023-05-21T18:16:41.633Z,18.44
2023-05-21T18:19:10.201Z,18.29
2023-05-21T18:21:38.827Z,18.16
2023-05-21T18:24:07.500Z,17.98
2023-05-21T18:26:36.048Z,17.78
2023-05-21T18:29:04.463Z,17.61
2023-05-21T18:31:32.801Z,17.48
2023-05-21T18:34:01.168Z,17.36
2023-05-21T18:36:29.581Z,17.24
2023-05-21T18:38:57.811Z,17.12
2023-05-21T18:41:26.583Z,17.01
2023-05-21T18:43:55.188Z,16.90
2023-05-21T18:46:23.755Z,16.78
2023-05-21T18:48:52.180Z,16.68
2023-05-21T18:51:20.578Z,16.58
2023-05-21T18:53:48.810Z,16.47
2023-05-21T18:56:17.370Z,16.38
2023-05-21T18:58:45.844Z,16.28
2023-05-21T19:01:14.250Z,16.18
2023-05-21T19:03:42.776Z,16.07
2023-05-21T19:06:13.947Z,15.95
2023-05-21T19:08:42.291Z,15.86
2023-05-21T19:11:12.183Z,15.75
2023-05-21T19:13:40.823Z,15.65
2023-05-21T19:16:11.448Z,15.54
2023-05-21T19:18:44.597Z,15.44
2023-05-21T19:21:13.788Z,15.34
2023-05-21T19:23:52.582Z,15.23
2023-05-21T19:26:22.892Z,15.12
2023-05-21T19:28:53.794Z,15.01
2023-05-21T19:31:23.526Z,14.92
2023-05-21T19:33:52.379Z,14.81
2023-05-21T19:36:22.025Z,14.69
2023-05-21T19:38:50.911Z,14.59
2023-05-21T19:41:22.213Z,14.50
2023-05-21T19:43:50.494Z,14.42
2023-05-21T19:46:20.467Z,14.34
2023-05-21T19:48:50.745Z,14.26
2023-05-21T19:51:19.177Z,14.15
2023-05-21T19:53:47.430Z,14.06
2023-05-21T19:56:16.457Z,13.97
2023-05-21T19:58:47.792Z,13.88
2023-05-21T20:01:16.925Z,13.81
2023-05-21T20:03:46.367Z,13.73
2023-05-21T20:06:17.185Z,13.66
2023-05-21T20:08:45.948Z,13.59
2023-05-21T20:11:14.313Z,13.51
2023-05-21T20:13:42.728Z,13.41
2023-05-21T20:16:12.783Z,13.32
2023-05-21T20:18:41.720Z,13.25
2023-05-21T20:21:10.608Z,13.15
2023-05-21T20:23:39.077Z,13.06
2023-05-21T20:26:07.429Z,12.98
2023-05-21T20:28:36.557Z,12.90
2023-05-21T20:31:05.210Z,12.82
2023-05-21T20:33:38.713Z,12.77
2023-05-21T20:36:08.719Z,12.72
2023-05-21T20:38:38.240Z,12.67
2023-05-21T20:41:07.454Z,12.61
2023-05-21T20:43:37.488Z,12.55
2023-05-21T20:46:06.191Z,12.45
2023-05-21T20:48:35.366Z,12.36
2023-05-21T20:51:06.242Z,12.30
2023-05-21T20:53:37.170Z,12.25
2023-05-21T20:56:08.073Z,12.20
2023-05-21T20:58:36.878Z,12.15
2023-05-21T21:01:05.263Z,12.10
2023-05-21T21:03:34.408Z,12.04
2023-05-21T21:06:04.491Z,11.97
2023-05-21T21:08:34.914Z,11.90
2023-05-21T21:11:03.245Z,11.82
2023-05-21T21:13:31.589Z,11.75
2023-05-21T21:15:59.970Z,11.69
2023-05-21T21:18:28.335Z,11.63
2023-05-21T21:20:56.627Z,11.59
2023-05-21T21:23:27.918Z,11.53
2023-05-21T21:25:57.595Z,11.47
2023-05-21T21:28:26.029Z,11.44
2023-05-21T21:30:54.432Z,11.40
2023-05-21T21:33:24.581Z,11.36
2023-05-21T21:35:53.061Z,11.31
2023-05-21T21:38:21.609Z,11.25
2023-05-21T21:40:50.106Z,11.19
2023-05-21T21:43:18.614Z,11.13
2023-05-21T21:45:46.928Z,11.07
2023-05-21T21:48:16.703Z,11.03
2023-05-21T21:50:45.411Z,10.99
2023-05-21T21:53:14.191Z,10.96
2023-05-21T21:55:42.569Z,10.90
2023-05-21T21:58:11.448Z,10.85
2023-05-21T22:00:40.331Z,10.81
2023-05-21T22:03:08.968Z,10.75
2023-05-21T22:05:38.357Z,10.70
2023-05-21T22:08:06.663Z,10.66
2023-05-21T22:10:38.238Z,10.60
2023-05-21T22:13:07.671Z,10.54
2023-05-21T22:15:36.102Z,10.47
2023-05-21T22:18:04.640Z,10.43
2023-05-21T22:20:35.922Z,10.40
2023-05-21T22:23:04.569Z,10.37
2023-05-21T22:25:32.946Z,10.33
2023-05-21T22:28:01.288Z,10.28
2023-05-21T22:30:29.729Z,10.22
2023-05-21T22:32:58.156Z,10.16
2023-05-21T22:35:26.857Z,10.10
2023-05-21T22:37:55.166Z,10.06
2023-05-21T22:40:23.561Z,10.01
2023-05-21T22:42:51.923Z,9.97
2023-05-21T22:45:21.906Z,9.93
2023-05-21T22:47:52.039Z,9.87
2023-05-21T22:50:20.837Z,9.81
2023-05-21T22:52:49.425Z,9.75
2023-05-21T22:55:17.945Z,9.72
2023-05-21T22:57:46.346Z,9.68
2023-05-21T23:00:14.954Z,9.64
2023-05-21T23:02:43.423Z,9.60
2023-05-21T23:05:11.777Z,9.57
2023-05-21T23:07:41.521Z,9.54
2023-05-21T23:10:10.198Z,9.50
2023-05-21T23:12:38.537Z,9.46
2023-05-21T23:15:07.433Z,9.40
2023-05-21T23:17:36.067Z,9.37
2023-05-21T23:20:07.481Z,9.34
2023-05-21T23:22:36.070Z,9.31
2023-05-21T23:25:05.207Z,9.27
2023-05-21T23:27:33.838Z,9.23
2023-05-21T23:30:02.208Z,9.19
2023-05-21T23:32:30.591Z,9.15
2023-05-21T23:34:59.001Z,9.12
2023-05-21T23:37:27.339Z,9.09
2023-05-21T23:39:55.650Z,9.05
2023-05-21T23:42:23.972Z,9.01
2023-05-21T23:44:52.392Z,8.97
2023-05-21T23:47:20.698Z,8.92
2023-05-21T23:49:49.027Z,8.88
2023-05-21T23:52:18.470Z,8.83
2023-05-21T23:54:46.795Z,8.79
2023-05-21T23:57:15.170Z,8.75
2023-05-21T23:59:43.581Z,8.70
